createdAt,value
2023-02-28T00:01:32.616Z,3.45
2023-02-28T00:03:59.536Z,3.25
2023-02-28T00:06:27.539Z,3.25
2023-02-28T00:08:54.832Z,3.50
2023-02-28T00:11:21.649Z,3.58
2023-02-28T00:13:49.245Z,4.07
2023-02-28T00:16:21.380Z,3.78
2023-02-28T00:18:48.829Z,3.28
2023-02-28T00:21:17.398Z,3.15
2023-02-28T00:23:45.166Z,3.00
2023-02-28T00:26:12.818Z,3.33
2023-02-28T00:28:39.589Z,3.08
2023-02-28T00:31:06.577Z,3.20
2023-02-28T00:33:33.556Z,2.90
2023-02-28T00:36:12.580Z,3.53
2023-02-28T00:38:40.959Z,2.90
2023-02-28T00:41:08.731Z,3.08
2023-02-28T00:43:38.630Z,3.22
2023-02-28T00:46:05.919Z,2.95
2023-02-28T00:48:33.524Z,2.88
2023-02-28T00:51:01.133Z,3.58
2023-02-28T00:53:28.718Z,3.45
2023-02-28T00:55:55.499Z,2.85
2023-02-28T00:58:22.576Z,3.00
2023-02-28T01:00:50.150Z,3.33
2023-02-28T01:03:19.246Z,3.10
2023-02-28T01:05:47.387Z,3.22
2023-02-28T01:08:15.352Z,3.08
2023-02-28T01:10:43.347Z,2.90
2023-02-28T01:13:10.535Z,3.22
2023-02-28T01:15:37.777Z,2.92
2023-02-28T01:18:04.545Z,3.28
2023-02-28T01:20:31.786Z,3.00
2023-02-28T01:22:58.617Z,2.92
2023-02-28T01:25:25.474Z,3.10
2023-02-28T01:27:52.294Z,3.25
2023-02-28T01:30:19.095Z,3.30
2023-02-28T01:32:45.870Z,3.17
2023-02-28T01:35:12.741Z,3.08
2023-02-28T01:37:39.627Z,3.53
2023-02-28T01:40:07.354Z,3.08
2023-02-28T01:42:34.117Z,3.60
2023-02-28T01:45:18.934Z,3.10
2023-02-28T01:47:48.881Z,2.85
2023-02-28T01:50:25.920Z,3.50
2023-02-28T01:52:58.111Z,3.38
2023-02-28T01:55:29.599Z,3.30
2023-02-28T01:58:01.163Z,3.10
2023-02-28T02:00:30.669Z,3.22
2023-02-28T02:03:05.762Z,3.42
2023-02-28T02:05:33.070Z,3.58
2023-02-28T02:08:08.844Z,3.15
2023-02-28T02:10:51.256Z,3.75
2023-02-28T02:13:56.624Z,3.17
2023-02-28T02:16:56.447Z,3.15
2023-02-28T02:20:04.894Z,2.92
2023-02-28T02:23:04.522Z,3.10
2023-02-28T02:26:13.126Z,3.15
2023-02-28T02:29:24.016Z,3.58
2023-02-28T02:32:17.804Z,3.75
2023-02-28T02:34:59.549Z,3.05
2023-02-28T02:37:32.131Z,3.30
2023-02-28T02:40:16.561Z,3.50
2023-02-28T02:43:07.940Z,3.58
2023-02-28T02:45:37.617Z,3.50
2023-02-28T02:48:10.126Z,3.45
2023-02-28T02:50:44.098Z,3.60
2023-02-28T02:55:47.126Z,3.38
2023-02-28T03:00:54.614Z,3.38
2023-02-28T03:03:30.153Z,2.90
2023-02-28T03:06:00.223Z,3.35
2023-02-28T03:08:30.278Z,3.95
2023-02-28T03:11:09.707Z,3.90
2023-02-28T03:14:25.471Z,3.70
2023-02-28T03:17:20.135Z,3.40
2023-02-28T03:22:53.199Z,3.53
2023-02-28T03:25:44.126Z,3.83
2023-02-28T03:28:38.059Z,3.45
2023-02-28T03:31:17.925Z,3.17
2023-02-28T03:34:23.121Z,3.55
2023-02-28T03:36:56.119Z,3.25
2023-02-28T03:39:39.076Z,3.78
2023-02-28T03:42:18.632Z,3.60
2023-02-28T03:44:57.035Z,3.92
2023-02-28T03:47:57.530Z,3.92
2023-02-28T03:50:37.408Z,3.58
2023-02-28T03:53:24.703Z,3.55
2023-02-28T03:56:02.238Z,3.72
2023-02-28T03:58:56.601Z,4.20
2023-02-28T04:01:33.398Z,3.67
2023-02-28T04:04:00.415Z,3.50
2023-02-28T04:06:28.142Z,3.92
2023-02-28T04:08:55.463Z,4.03
2023-02-28T04:11:36.250Z,3.85
2023-02-28T04:14:08.715Z,3.97
2023-02-28T04:16:40.653Z,4.43
2023-02-28T04:19:10.159Z,3.78
2023-02-28T04:21:40.716Z,4.00
2023-02-28T04:24:14.868Z,3.90
2023-02-28T04:26:45.564Z,3.88
2023-02-28T04:29:15.785Z,3.60
2023-02-28T04:31:42.603Z,3.50
2023-02-28T04:34:09.421Z,4.20
2023-02-28T04:36:36.374Z,4.15
2023-02-28T04:39:03.309Z,4.10
2023-02-28T04:41:32.415Z,3.78
2023-02-28T04:43:59.927Z,3.85
2023-02-28T04:46:26.713Z,3.60
2023-02-28T04:48:55.059Z,4.07
2023-02-28T04:51:21.929Z,4.07
2023-02-28T04:53:49.446Z,4.65
2023-02-28T04:56:18.859Z,4.00
2023-02-28T04:58:46.179Z,4.53
2023-02-28T05:01:23.396Z,3.92
2023-02-28T05:03:51.205Z,4.60
2023-02-28T05:06:18.944Z,4.57
2023-02-28T05:08:45.950Z,4.22
2023-02-28T05:11:24.882Z,4.63
2023-02-28T05:13:53.064Z,5.00
2023-02-28T05:16:20.852Z,4.18
2023-02-28T05:18:48.497Z,4.22
2023-02-28T05:21:27.469Z,4.55
2023-02-28T05:23:55.246Z,4.45
2023-02-28T05:26:22.707Z,4.28
2023-02-28T05:28:49.841Z,4.57
2023-02-28T05:31:16.784Z,4.97
2023-02-28T05:33:43.628Z,4.18
2023-02-28T05:36:10.543Z,4.55
2023-02-28T05:38:38.871Z,4.47
2023-02-28T05:41:11.104Z,4.35
2023-02-28T05:43:38.894Z,4.35
2023-02-28T05:46:12.203Z,4.53
2023-02-28T05:48:41.462Z,4.38
2023-02-28T05:51:09.973Z,4.40
2023-02-28T05:53:37.349Z,4.68
2023-02-28T05:56:05.164Z,4.43
2023-02-28T05:58:32.258Z,4.78
2023-02-28T06:01:00.867Z,4.63
2023-02-28T06:03:28.367Z,4.68
2023-02-28T06:05:55.442Z,4.85
2023-02-28T06:08:22.554Z,5.05
2023-02-28T06:10:49.274Z,4.82
2023-02-28T06:13:16.181Z,5.65
2023-02-28T06:15:43.083Z,5.15
2023-02-28T06:18:09.894Z,4.80
2023-02-28T06:20:37.251Z,4.95
2023-02-28T06:23:04.330Z,5.65
2023-02-28T06:25:31.113Z,5.65
2023-02-28T06:27:58.146Z,5.10
2023-02-28T06:30:27.685Z,5.32
2023-02-28T06:32:55.699Z,5.38
2023-02-28T06:35:23.037Z,5.53
2023-02-28T06:37:49.948Z,6.70
2023-02-28T06:40:17.009Z,5.93
2023-02-28T06:42:44.365Z,5.55
2023-02-28T06:45:12.797Z,5.40
2023-02-28T06:47:41.781Z,5.32
2023-02-28T06:50:13.741Z,5.45
2023-02-28T06:52:40.472Z,5.72
2023-02-28T06:55:09.175Z,5.65
2023-02-28T06:57:37.663Z,5.72
2023-02-28T07:00:14.259Z,5.53
2023-02-28T07:02:41.081Z,5.57
2023-02-28T07:05:08.336Z,6.13
2023-02-28T07:07:37.299Z,5.72
2023-02-28T07:10:04.847Z,5.88
2023-02-28T07:12:31.556Z,7.55
2023-02-28T07:14:58.278Z,8.75
2023-02-28T07:17:25.108Z,7.82
2023-02-28T07:19:51.910Z,7.55
2023-02-28T07:22:18.672Z,7.05
2023-02-28T07:24:45.426Z,7.60
2023-02-28T07:27:12.263Z,6.72
2023-02-28T07:29:39.274Z,6.53
2023-02-28T07:32:06.122Z,5.80
2023-02-28T07:34:32.911Z,5.43
2023-02-28T07:36:59.910Z,5.70
2023-02-28T07:39:26.743Z,4.85
2023-02-28T07:41:53.710Z,5.28
2023-02-28T07:44:20.505Z,4.90
2023-02-28T07:46:47.300Z,4.95
2023-02-28T07:49:14.086Z,4.90
2023-02-28T07:51:41.051Z,4.82
2023-02-28T07:54:07.818Z,4.20
2023-02-28T07:56:34.619Z,6.40
2023-02-28T07:59:02.660Z,4.72
2023-02-28T08:01:29.919Z,4.97
2023-02-28T08:03:58.032Z,4.72
2023-02-28T08:06:27.232Z,3.97
2023-02-28T08:08:54.696Z,3.78
2023-02-28T08:11:21.515Z,3.80
2023-02-28T08:13:48.323Z,3.28
2023-02-28T08:16:18.630Z,3.53
2023-02-28T08:18:45.655Z,3.85
2023-02-28T08:21:12.806Z,3.03
2023-02-28T08:23:39.980Z,3.42
2023-02-28T08:26:07.427Z,3.35
2023-02-28T08:28:34.912Z,3.58
2023-02-28T08:31:09.103Z,3.03
2023-02-28T08:33:36.192Z,2.83
2023-02-28T08:36:03.072Z,2.53
2023-02-28T08:38:30.119Z,2.58
2023-02-28T08:41:03.808Z,2.90
2023-02-28T08:43:30.699Z,2.75
2023-02-28T08:45:57.919Z,3.35
2023-02-28T08:48:30.382Z,2.65
2023-02-28T08:51:14.378Z,2.63
2023-02-28T08:53:41.620Z,2.70
2023-02-28T08:56:12.527Z,3.17
2023-02-28T08:58:40.036Z,2.83
2023-02-28T09:01:16.492Z,2.88
2023-02-28T09:03:44.226Z,2.60
2023-02-28T09:06:12.468Z,2.10
2023-02-28T09:08:39.692Z,2.45
2023-02-28T09:11:06.798Z,2.47
2023-02-28T09:13:34.315Z,2.47
2023-02-28T09:16:04.306Z,2.40
2023-02-28T09:18:32.061Z,2.03
2023-02-28T09:20:58.966Z,2.00
2023-02-28T09:23:26.159Z,2.30
2023-02-28T09:25:55.935Z,2.53
2023-02-28T09:28:23.675Z,2.38
2023-02-28T09:30:53.995Z,2.45
2023-02-28T09:33:22.520Z,2.28
2023-02-28T09:35:50.472Z,2.20
2023-02-28T09:38:18.408Z,1.95
2023-02-28T09:41:02.448Z,1.83
2023-02-28T09:43:42.674Z,1.77
2023-02-28T09:46:35.940Z,1.80
2023-02-28T09:49:12.672Z,1.95
2023-02-28T09:52:02.002Z,2.00
2023-02-28T09:54:33.556Z,2.30
2023-02-28T09:57:14.638Z,1.77
2023-02-28T10:00:09.212Z,1.98
2023-02-28T10:05:50.985Z,1.63
2023-02-28T10:08:52.961Z,1.70
2023-02-28T10:11:21.737Z,2.10
2023-02-28T10:14:02.553Z,2.63
2023-02-28T10:16:47.508Z,3.00
2023-02-28T10:19:33.487Z,2.78
2023-02-28T10:22:20.019Z,2.22
2023-02-28T10:24:52.476Z,3.10
2023-02-28T10:27:29.730Z,2.92
2023-02-28T10:30:02.935Z,2.78
2023-02-28T10:32:36.049Z,3.20
2023-02-28T10:35:27.757Z,2.40
2023-02-28T10:38:01.841Z,3.28
2023-02-28T10:40:36.648Z,2.70
2023-02-28T10:43:18.745Z,2.38
2023-02-28T10:46:05.040Z,2.25
2023-02-28T10:49:00.250Z,2.03
2023-02-28T10:51:40.794Z,2.35
2023-02-28T10:54:19.037Z,2.28
2023-02-28T10:56:45.994Z,2.10
2023-02-28T10:59:15.640Z,2.00
2023-02-28T11:01:49.907Z,2.03
2023-02-28T11:04:30.297Z,1.58
2023-02-28T11:07:04.231Z,2.08
2023-02-28T11:09:39.585Z,2.70
2023-02-28T11:12:50.820Z,2.40
2023-02-28T11:15:21.808Z,2.65
2023-02-28T11:18:48.996Z,3.08
2023-02-28T11:21:41.184Z,2.97
2023-02-28T11:24:32.924Z,2.90
2023-02-28T11:26:59.713Z,2.75
2023-02-28T11:29:33.273Z,2.85
2023-02-28T11:32:25.278Z,2.63
2023-02-28T11:35:18.468Z,2.35
2023-02-28T11:37:46.871Z,2.20
2023-02-28T11:40:22.748Z,2.17
2023-02-28T11:43:34.355Z,2.42
2023-02-28T11:46:42.140Z,2.30
2023-02-28T11:49:32.316Z,2.42
2023-02-28T11:52:45.451Z,2.17
2023-02-28T11:55:34.169Z,2.78
2023-02-28T11:58:24.144Z,2.55
2023-02-28T12:01:25.818Z,2.60
2023-02-28T12:04:25.856Z,2.75
2023-02-28T12:07:29.012Z,2.53
2023-02-28T12:10:38.411Z,2.40
2023-02-28T12:13:35.403Z,2.70
2023-02-28T12:16:32.880Z,2.67
2023-02-28T12:19:14.271Z,2.17
2023-02-28T12:22:14.724Z,2.70
2023-02-28T12:25:17.837Z,2.17
2023-02-28T12:27:48.926Z,2.30
2023-02-28T12:30:45.163Z,2.00
2023-02-28T12:33:18.997Z,2.47
2023-02-28T12:35:56.901Z,2.28
2023-02-28T12:38:35.318Z,2.30
2023-02-28T12:41:09.390Z,2.10
2023-02-28T12:43:49.832Z,1.98
2023-02-28T12:46:51.721Z,2.30
2023-02-28T12:49:42.253Z,2.20
2023-02-28T12:52:14.429Z,2.63
2023-02-28T12:54:54.158Z,1.95
2023-02-28T12:57:42.402Z,2.15
2023-02-28T13:00:18.653Z,2.33
2023-02-28T13:03:29.371Z,2.53
2023-02-28T13:06:34.728Z,2.28
2023-02-28T13:09:10.700Z,2.40
2023-02-28T13:11:52.743Z,2.50
2023-02-28T13:14:24.137Z,2.10
2023-02-28T13:17:12.098Z,2.00
2023-02-28T13:20:04.772Z,2.20
2023-02-28T13:22:45.668Z,2.40
2023-02-28T13:25:42.919Z,1.95
2023-02-28T13:28:35.284Z,2.03
2023-02-28T13:31:05.903Z,1.98
2023-02-28T13:34:01.400Z,2.13
2023-02-28T13:36:33.362Z,2.20
2023-02-28T13:39:36.442Z,2.20
2023-02-28T13:42:35.216Z,2.22
2023-02-28T13:45:04.928Z,2.10
2023-02-28T13:47:53.337Z,2.28
2023-02-28T13:50:27.289Z,2.33
2023-02-28T13:55:54.124Z,2.30
2023-02-28T13:58:49.071Z,2.15
2023-02-28T14:01:27.272Z,2.88
2023-02-28T14:04:16.435Z,2.97
2023-02-28T14:06:52.445Z,2.50
2023-02-28T14:09:35.059Z,2.42
2023-02-28T14:13:06.039Z,2.17
2023-02-28T14:15:49.345Z,2.60
2023-02-28T14:18:25.731Z,2.03
2023-02-28T14:21:00.756Z,2.13
2023-02-28T14:24:17.692Z,2.10
2023-02-28T14:26:59.266Z,2.17
2023-02-28T14:29:50.974Z,2.05
2023-02-28T14:32:36.499Z,2.60
2023-02-28T14:35:30.892Z,2.30
2023-02-28T14:37:58.375Z,2.10
2023-02-28T14:40:33.282Z,2.35
2023-02-28T14:43:06.811Z,2.45
2023-02-28T14:45:38.345Z,2.60
2023-02-28T14:48:10.793Z,2.33
2023-02-28T14:50:38.775Z,2.65
2023-02-28T14:53:19.138Z,2.67
2023-02-28T14:55:48.699Z,2.65
2023-02-28T14:58:28.075Z,2.40
2023-02-28T15:00:59.250Z,2.58
2023-02-28T15:03:32.591Z,2.60
2023-02-28T15:06:03.847Z,2.60
2023-02-28T15:08:35.988Z,2.75
2023-02-28T15:11:22.222Z,2.67
2023-02-28T15:13:57.362Z,3.42
2023-02-28T15:16:38.339Z,2.70
2023-02-28T15:19:20.904Z,2.97
2023-02-28T15:21:55.421Z,6.53
2023-02-28T15:24:36.650Z,4.18
2023-02-28T15:27:11.955Z,3.75
2023-02-28T15:29:50.195Z,3.58
2023-02-28T15:32:40.737Z,3.08
2023-02-28T15:35:26.013Z,2.90
2023-02-28T15:37:58.396Z,2.50
2023-02-28T15:40:36.403Z,2.20
2023-02-28T15:43:18.899Z,2.50
2023-02-28T15:45:53.712Z,2.80
2023-02-28T15:48:36.888Z,3.50
2023-02-28T15:51:18.450Z,4.70
2023-02-28T15:53:54.325Z,3.58
2023-02-28T15:56:27.402Z,3.08
2023-02-28T15:59:08.049Z,2.60
2023-02-28T16:01:38.681Z,2.83
2023-02-28T16:04:18.518Z,3.47
2023-02-28T16:07:06.781Z,3.30
2023-02-28T16:09:35.316Z,3.00
2023-02-28T16:12:04.518Z,3.33
2023-02-28T16:14:32.482Z,3.17
2023-02-28T16:17:22.032Z,2.85
2023-02-28T16:19:49.186Z,2.88
2023-02-28T16:22:16.596Z,3.30
2023-02-28T16:24:43.402Z,2.85
2023-02-28T16:27:36.099Z,2.97
2023-02-28T16:30:06.098Z,2.85
2023-02-28T16:32:37.284Z,2.45
2023-02-28T16:35:04.664Z,3.03
2023-02-28T16:37:31.614Z,2.67
2023-02-28T16:39:58.331Z,2.70
2023-02-28T16:42:29.496Z,3.08
2023-02-28T16:44:56.711Z,4.10
2023-02-28T16:47:23.505Z,3.50
2023-02-28T16:49:50.550Z,3.47
2023-02-28T16:52:17.298Z,3.20
2023-02-28T16:54:44.009Z,3.10
2023-02-28T16:57:28.741Z,3.03
2023-02-28T16:59:55.473Z,3.40
2023-02-28T17:02:22.493Z,3.85
2023-02-28T17:04:50.350Z,3.30
2023-02-28T17:07:17.972Z,4.28
2023-02-28T17:09:46.760Z,4.13
2023-02-28T17:12:13.734Z,3.47
2023-02-28T17:14:40.501Z,3.22
2023-02-28T17:17:08.476Z,3.78
2023-02-28T17:19:36.983Z,3.67
2023-02-28T17:22:04.186Z,3.50
2023-02-28T17:24:31.646Z,3.47
2023-02-28T17:26:59.149Z,3.67
2023-02-28T17:29:26.344Z,3.72
2023-02-28T17:31:53.957Z,4.30
2023-02-28T17:34:21.167Z,4.32
2023-02-28T17:36:50.872Z,4.38
2023-02-28T17:39:25.367Z,4.47
2023-02-28T17:41:56.624Z,4.45
2023-02-28T17:44:25.097Z,4.50
2023-02-28T17:46:54.356Z,4.20
2023-02-28T17:49:21.544Z,4.68
2023-02-28T17:51:49.172Z,4.80
2023-02-28T17:54:18.230Z,4.93
2023-02-28T17:56:45.899Z,4.82
2023-02-28T17:59:13.654Z,4.95
2023-02-28T18:01:40.651Z,4.35
2023-02-28T18:04:07.633Z,4.95
2023-02-28T18:06:51.611Z,5.28
2023-02-28T18:09:22.932Z,4.68
2023-02-28T18:11:55.532Z,5.07
2023-02-28T18:14:26.227Z,4.68
2023-02-28T18:16:55.922Z,4.63
2023-02-28T18:19:23.289Z,4.80
2023-02-28T18:21:53.457Z,5.40
2023-02-28T18:24:23.033Z,5.13
2023-02-28T18:26:51.417Z,5.75
2023-02-28T18:29:23.994Z,6.07
2023-02-28T18:31:51.491Z,6.05
2023-02-28T18:34:18.933Z,6.90
2023-02-28T18:36:47.171Z,6.25
2023-02-28T18:39:15.322Z,6.47
2023-02-28T18:41:42.159Z,7.03
2023-02-28T18:44:18.934Z,6.43
2023-02-28T18:46:46.215Z,6.05
2023-02-28T18:49:13.115Z,6.32
2023-02-28T18:51:44.839Z,6.13
2023-02-28T18:54:13.520Z,6.32
2023-02-28T18:56:40.277Z,5.68
2023-02-28T18:59:07.087Z,5.97
2023-02-28T19:01:34.586Z,5.65
2023-02-28T19:04:03.661Z,6.55
2023-02-28T19:06:32.914Z,5.43
2023-02-28T19:09:04.184Z,5.57
2023-02-28T19:11:31.828Z,5.38
2023-02-28T19:13:58.761Z,6.05
2023-02-28T19:16:26.004Z,5.47
2023-02-28T19:18:53.861Z,5.95
2023-02-28T19:21:23.832Z,5.85
2023-02-28T19:23:50.606Z,5.35
2023-02-28T19:26:23.595Z,6.20
2023-02-28T19:28:50.663Z,5.22
2023-02-28T19:31:22.279Z,5.85
2023-02-28T19:33:49.680Z,6.78
2023-02-28T19:36:16.517Z,5.50
2023-02-28T19:38:44.778Z,7.00
2023-02-28T19:41:14.260Z,9.07
2023-02-28T19:43:41.240Z,9.02
2023-02-28T19:46:09.612Z,9.07
2023-02-28T19:48:36.941Z,7.93
2023-02-28T19:51:09.505Z,8.15
2023-02-28T19:53:38.815Z,7.93
2023-02-28T19:56:06.293Z,6.97
2023-02-28T19:58:34.327Z,6.82
2023-02-28T20:01:09.914Z,7.22
2023-02-28T20:03:37.060Z,6.35
2023-02-28T20:06:10.788Z,8.88
2023-02-28T20:08:38.526Z,7.45
2023-02-28T20:11:12.365Z,7.63
2023-02-28T20:13:39.900Z,7.20
2023-02-28T20:16:10.560Z,6.80
2023-02-28T20:18:39.355Z,6.50
2023-02-28T20:21:09.322Z,6.32
2023-02-28T20:23:38.961Z,6.30
2023-02-28T20:26:06.147Z,6.25
2023-02-28T20:28:33.062Z,6.22
2023-02-28T20:31:00.639Z,6.53
2023-02-28T20:33:28.184Z,6.53
2023-02-28T20:36:05.560Z,6.32
2023-02-28T20:38:32.389Z,6.30
2023-02-28T20:41:00.551Z,6.47
2023-02-28T20:43:28.368Z,7.05
2023-02-28T20:45:58.811Z,6.05
2023-02-28T20:48:25.621Z,6.93
2023-02-28T20:50:55.392Z,7.05
2023-02-28T20:53:24.228Z,6.55
2023-02-28T20:56:02.469Z,6.90
2023-02-28T20:58:35.900Z,7.20
2023-02-28T21:01:17.438Z,6.93
2023-02-28T21:03:51.043Z,7.45
2023-02-28T21:06:20.828Z,6.55
2023-02-28T21:08:47.789Z,7.10
2023-02-28T21:11:44.690Z,6.55
2023-02-28T21:14:18.055Z,6.90
2023-02-28T21:16:46.996Z,7.28
2023-02-28T21:19:14.034Z,6.80
2023-02-28T21:21:43.951Z,7.53
2023-02-28T21:24:17.463Z,6.45
2023-02-28T21:26:47.049Z,6.85
2023-02-28T21:29:14.080Z,6.97
2023-02-28T21:31:41.146Z,7.15
2023-02-28T21:34:09.650Z,6.88
2023-02-28T21:36:41.055Z,6.75
2023-02-28T21:39:17.400Z,7.80
2023-02-28T21:41:44.416Z,7.07
2023-02-28T21:44:19.498Z,7.43
2023-02-28T21:46:49.644Z,9.07
2023-02-28T21:49:17.353Z,8.18
2023-02-28T21:51:44.582Z,9.82
2023-02-28T21:54:11.984Z,9.50
2023-02-28T21:56:39.477Z,9.63
2023-02-28T21:59:09.650Z,9.45
2023-02-28T22:01:44.030Z,8.20
2023-02-28T22:04:20.970Z,8.82
2023-02-28T22:06:52.810Z,9.38
2023-02-28T22:09:20.518Z,9.05
2023-02-28T22:11:47.621Z,10.32
2023-02-28T22:14:14.821Z,9.70
2023-02-28T22:16:57.557Z,9.52
2023-02-28T22:19:25.201Z,9.27
2023-02-28T22:21:53.823Z,9.18
2023-02-28T22:24:24.100Z,10.50
2023-02-28T22:26:52.141Z,10.73
2023-02-28T22:29:18.891Z,11.43
2023-02-28T22:31:45.754Z,10.35
2023-02-28T22:34:13.035Z,10.73
2023-02-28T22:36:43.622Z,10.63
2023-02-28T22:39:10.780Z,9.90
2023-02-28T22:41:37.942Z,9.90
2023-02-28T22:44:07.070Z,10.05
2023-02-28T22:46:35.913Z,9.80
2023-02-28T22:49:05.764Z,9.32
2023-02-28T22:51:32.557Z,9.52
2023-02-28T22:53:59.653Z,10.25
2023-02-28T22:56:29.949Z,11.10
2023-02-28T22:59:00.051Z,10.35
2023-02-28T23:01:31.488Z,10.30
2023-02-28T23:03:59.637Z,10.43
2023-02-28T23:06:31.800Z,10.05
2023-02-28T23:09:06.441Z,9.63
2023-02-28T23:11:39.970Z,9.75
2023-02-28T23:14:07.863Z,9.75
2023-02-28T23:16:41.552Z,10.00
2023-02-28T23:19:21.466Z,10.25
2023-02-28T23:21:49.645Z,9.00
2023-02-28T23:24:21.556Z,10.13
2023-02-28T23:26:52.606Z,10.00
2023-02-28T23:29:21.565Z,9.90
2023-02-28T23:31:50.088Z,8.98
2023-02-28T23:34:24.866Z,8.95
2023-02-28T23:36:52.714Z,9.00
2023-02-28T23:39:21.170Z,8.93
2023-02-28T23:41:48.441Z,9.55
2023-02-28T23:44:16.950Z,8.93
2023-02-28T23:46:50.725Z,9.35
2023-02-28T23:49:19.981Z,8.27
2023-02-28T23:51:51.532Z,9.45
2023-02-28T23:54:18.941Z,9.73
2023-02-28T23:56:46.077Z,9.40
2023-02-28T23:59:12.856Z,9.52
